Ettrick, Wisconsin
Current Conditions -  °F | °C
As of 12:53 AM on Thursday 23 Oct 2014 (Local Time) from KLSE Reporting Station
Overcast Overcast  
Wind Chill: 12°   Ceiling: 5000
Heat Index: 12°   Visibility: 10mi
Dew Point:   Wind: 8mph
Humidity: 57%   Direction: 240°WSW
Pressure: 30.14"   Gusts: NA
Location:  44.17°N, 91.27°W
Report Text: KLSE 230553Z AUTO 24007KT 10SM SCT037 BKN050 OVC080 12/03 A3014 RMK AO2 PRESRR SLP206 T01170033 10139 20117 401610017 55005
Loading
Personal Weather Stations






























Interactive Weather Map
Tropical Storm Tracking
New forecast layout! Learn more

10-Day Weather Forecast

Advertisements
Track Severe Weather on mobile